CST,Max TemperatureF,Mean TemperatureF,Min TemperatureF,Max Dew PointF,MeanDew PointF,Min DewpointF,Max Humidity, Mean Humidity, Min Humidity, Max Sea Level PressureIn, Mean Sea Level PressureIn, Min Sea Level PressureIn, Max VisibilityMiles, Mean VisibilityMiles, Min VisibilityMiles, Max Wind SpeedMPH, Mean Wind SpeedMPH, Max Gust SpeedMPH,PrecipitationIn, CloudCover, Events, WindDirDegrees
2013-11-1,53,48,41,52,41,37,100,83,71,29.71,29.44,29.11,10,10,9,12,7,20,0.32,7,,329
2013-11-2,42,36,30,37,33,28,100,80,57,30.15,29.94,29.72,10,10,10,12,7,,0.00,4,,10
2013-11-3,46,36,26,37,33,27,100,81,66,30.30,30.24,30.15,10,10,9,17,5,25,0.00,4,,180
2013-11-4,50,47,44,45,41,37,93,78,66,30.25,30.13,30.03,10,10,10,26,16,36,0.00,7,,192
2013-11-5,53,44,35,46,39,32,100,79,47,30.25,30.13,29.87,10,9,2,15,5,18,0.71,4,,269
2013-11-6,46,40,33,45,33,21,100,81,56,30.05,29.87,29.72,10,8,2,15,9,23,0.20,8,,342
2013-11-7,37,32,28,25,23,21,80,65,52,30.14,30.10,30.06,10,10,10,12,6,16,0.00,8,,294
2013-11-8,44,36,28,37,27,19,81,69,48,30.22,30.11,29.84,10,10,7,18,6,30,0.03,4,,232
2013-11-9,46,42,39,41,35,28,93,74,61,29.90,29.73,29.63,10,10,7,20,12,30,0.37,8,,264
2013-11-10,44,40,37,30,28,25,75,62,46,30.21,30.10,29.91,10,10,10,13,9,23,0.00,4,,286
2013-11-11,39,32,24,34,18,7,87,62,37,30.49,30.22,29.99,10,10,9,21,11,30,0.00,5,,331
2013-11-12,30,24,19,14,10,5,80,56,37,30.61,30.53,30.43,10,10,10,13,7,21,0.00,0,,291
2013-11-13,44,32,19,25,17,10,86,57,39,30.43,30.10,29.88,10,10,10,21,10,30,0.00,0,,244
2013-11-14,42,38,33,36,25,16,93,60,44,29.88,29.83,29.79,10,10,7,13,8,17,0.01,3,,235
2013-11-15,48,39,30,37,32,27,93,77,62,29.87,29.84,29.80,10,10,6,10,5,,0.00,0,,223
2013-11-16,53,45,37,52,42,34,100,90,76,29.85,29.65,29.41,10,6,2,23,10,33,0.47,6,Thunderstorm,191
2013-11-17,55,48,41,54,47,30,100,89,65,29.42,29.29,29.12,10,6,0,18,8,34,0.27,7,,246
2013-11-18,41,34,26,30,21,16,70,58,44,30.19,29.83,29.43,10,10,10,20,12,34,0.06,7,,305
2013-11-19,35,27,19,32,22,16,100,74,52,30.36,30.28,30.19,10,10,10,12,3,,0.00,1,,167
2013-11-20,42,38,35,36,32,30,87,76,61,30.23,30.17,30.11,10,10,10,18,10,26,0.00,5,,189
2013-11-21,39,36,32,37,35,28,100,90,81,30.26,30.16,30.11,10,6,2,17,5,22,0.02,8,,310
2013-11-22,33,30,26,28,19,10,93,66,47,30.42,30.34,30.27,10,10,4,17,10,24,0.00,4,,320
2013-11-23,24,17,10,12,1,-4,67,53,38,30.63,30.53,30.33,10,10,5,23,14,33,0.00,1,,331
2013-11-24,24,17,10,7,4,0,85,56,40,30.60,30.41,30.03,10,10,10,23,8,34,0.00,4,,257
2013-11-25,33,28,24,25,17,5,80,60,40,30.03,29.90,29.84,10,10,10,20,12,32,0.00,6,,243
2013-11-26,33,22,12,27,14,1,93,65,37,30.14,30.01,29.90,10,9,1,18,8,25,0.00,5,,326
2013-11-27,26,19,12,19,12,5,100,72,46,30.19,30.15,30.11,10,10,10,18,8,23,0.00,4,,348
2013-11-28,26,22,17,21,18,12,93,84,64,30.44,30.24,30.15,10,8,1,9,2,,0.00,7,,332
2013-11-29,30,20,10,25,16,7,100,77,59,30.58,30.48,30.31,10,10,10,14,5,21,0.04,3,,259
2013-11-30,35,32,30,28,25,21,80,72,64,30.30,30.10,30.00,10,9,6,15,9,24,0.00,6,,236